sensor_id;sensor_type;location;lat;lon;timestamp;P1;durP1;ratioP1;P2;durP2;ratioP2
50012;SDS011;35901;48.694;9.476;2022-11-21T00:01:18;0.83;;;0.80;;
50012;SDS011;35901;48.694;9.476;2022-11-21T00:03:45;0.70;;;0.70;;
50012;SDS011;35901;48.694;9.476;2022-11-21T00:06:11;0.97;;;0.70;;
50012;SDS011;35901;48.694;9.476;2022-11-21T00:08:37;0.97;;;0.83;;
50012;SDS011;35901;48.694;9.476;2022-11-21T00:11:03;1.03;;;0.80;;
50012;SDS011;35901;48.694;9.476;2022-11-21T00:13:28;0.80;;;0.80;;
50012;SDS011;35901;48.694;9.476;2022-11-21T00:15:54;1.47;;;0.70;;
50012;SDS011;35901;48.694;9.476;2022-11-21T00:18:20;1.83;;;0.77;;
50012;SDS011;35901;48.694;9.476;2022-11-21T00:20:45;0.90;;;0.90;;
50012;SDS011;35901;48.694;9.476;2022-11-21T00:23:11;1.00;;;0.90;;
50012;SDS011;35901;48.694;9.476;2022-11-21T00:25:37;1.27;;;0.80;;
50012;SDS011;35901;48.694;9.476;2022-11-21T00:28:03;0.93;;;0.80;;
50012;SDS011;35901;48.694;9.476;2022-11-21T00:30:29;0.80;;;0.80;;
50012;SDS011;35901;48.694;9.476;2022-11-21T00:32:58;0.90;;;0.90;;
50012;SDS011;35901;48.694;9.476;2022-11-21T00:35:24;0.73;;;0.70;;
50012;SDS011;35901;48.694;9.476;2022-11-21T00:37:51;1.50;;;0.87;;
50012;SDS011;35901;48.694;9.476;2022-11-21T00:40:16;0.70;;;0.70;;
50012;SDS011;35901;48.694;9.476;2022-11-21T00:42:42;1.03;;;0.80;;
50012;SDS011;35901;48.694;9.476;2022-11-21T00:45:08;1.97;;;1.00;;
50012;SDS011;35901;48.694;9.476;2022-11-21T00:47:34;1.97;;;0.90;;
50012;SDS011;35901;48.694;9.476;2022-11-21T00:49:59;0.80;;;0.80;;
50012;SDS011;35901;48.694;9.476;2022-11-21T00:52:25;1.63;;;1.00;;
50012;SDS011;35901;48.694;9.476;2022-11-21T00:54:51;3.60;;;0.93;;
50012;SDS011;35901;48.694;9.476;2022-11-21T00:57:16;0.70;;;0.70;;
50012;SDS011;35901;48.694;9.476;2022-11-21T00:59:42;1.50;;;0.90;;
50012;SDS011;35901;48.694;9.476;2022-11-21T01:02:08;2.63;;;0.93;;
50012;SDS011;35901;48.694;9.476;2022-11-21T01:04:34;1.63;;;0.80;;
50012;SDS011;35901;48.694;9.476;2022-11-21T01:07:00;1.33;;;0.80;;
50012;SDS011;35901;48.694;9.476;2022-11-21T01:09:26;1.23;;;0.97;;
50012;SDS011;35901;48.694;9.476;2022-11-21T01:11:52;1.53;;;0.97;;
50012;SDS011;35901;48.694;9.476;2022-11-21T01:14:19;1.70;;;0.93;;
50012;SDS011;35901;48.694;9.476;2022-11-21T01:16:44;1.33;;;1.00;;
50012;SDS011;35901;48.694;9.476;2022-11-21T01:19:10;1.90;;;0.90;;
50012;SDS011;35901;48.694;9.476;2022-11-21T01:21:36;1.77;;;1.10;;
50012;SDS011;35901;48.694;9.476;2022-11-21T01:24:01;1.73;;;1.30;;
50012;SDS011;35901;48.694;9.476;2022-11-21T01:26:28;1.13;;;0.90;;
50012;SDS011;35901;48.694;9.476;2022-11-21T01:28:58;1.70;;;1.13;;
50012;SDS011;35901;48.694;9.476;2022-11-21T01:31:25;3.10;;;1.20;;
50012;SDS011;35901;48.694;9.476;2022-11-21T01:33:52;1.23;;;0.90;;
50012;SDS011;35901;48.694;9.476;2022-11-21T01:36:19;1.03;;;0.80;;
50012;SDS011;35901;48.694;9.476;2022-11-21T01:38:51;1.67;;;0.90;;
50012;SDS011;35901;48.694;9.476;2022-11-21T01:41:20;0.60;;;0.60;;
50012;SDS011;35901;48.694;9.476;2022-11-21T01:43:47;1.43;;;1.00;;
50012;SDS011;35901;48.694;9.476;2022-11-21T01:46:14;3.20;;;0.97;;
50012;SDS011;35901;48.694;9.476;2022-11-21T01:51:25;2.83;;;0.90;;
50012;SDS011;35901;48.694;9.476;2022-11-21T01:54:26;3.27;;;1.07;;
50012;SDS011;35901;48.694;9.476;2022-11-21T01:57:07;2.43;;;1.20;;
50012;SDS011;35901;48.694;9.476;2022-11-21T01:59:40;1.90;;;1.10;;
50012;SDS011;35901;48.694;9.476;2022-11-21T02:02:14;2.83;;;1.10;;
50012;SDS011;35901;48.694;9.476;2022-11-21T02:04:42;1.63;;;0.90;;
50012;SDS011;35901;48.694;9.476;2022-11-21T02:07:08;1.73;;;1.03;;
50012;SDS011;35901;48.694;9.476;2022-11-21T02:09:38;1.47;;;1.03;;
50012;SDS011;35901;48.694;9.476;2022-11-21T02:12:08;3.37;;;1.30;;
50012;SDS011;35901;48.694;9.476;2022-11-21T02:14:39;1.33;;;1.00;;
50012;SDS011;35901;48.694;9.476;2022-11-21T02:17:08;1.93;;;1.10;;
50012;SDS011;35901;48.694;9.476;2022-11-21T02:19:45;1.20;;;1.10;;
50012;SDS011;35901;48.694;9.476;2022-11-21T02:25:05;2.80;;;1.10;;
50012;SDS011;35901;48.694;9.476;2022-11-21T02:27:36;2.53;;;1.17;;
50012;SDS011;35901;48.694;9.476;2022-11-21T02:34:53;2.53;;;1.30;;
50012;SDS011;35901;48.694;9.476;2022-11-21T02:37:18;3.57;;;1.20;;
50012;SDS011;35901;48.694;9.476;2022-11-21T02:39:44;2.77;;;1.40;;
50012;SDS011;35901;48.694;9.476;2022-11-21T02:42:13;1.00;;;0.90;;
50012;SDS011;35901;48.694;9.476;2022-11-21T02:44:49;4.17;;;1.30;;
50012;SDS011;35901;48.694;9.476;2022-11-21T02:47:21;2.50;;;1.17;;
50012;SDS011;35901;48.694;9.476;2022-11-21T02:49:49;3.27;;;1.27;;
50012;SDS011;35901;48.694;9.476;2022-11-21T02:52:22;1.67;;;1.20;;
50012;SDS011;35901;48.694;9.476;2022-11-21T02:54:48;2.30;;;1.20;;
50012;SDS011;35901;48.694;9.476;2022-11-21T02:57:13;3.47;;;1.30;;
50012;SDS011;35901;48.694;9.476;2022-11-21T02:59:39;5.13;;;1.50;;
50012;SDS011;35901;48.694;9.476;2022-11-21T03:02:05;2.90;;;1.10;;
50012;SDS011;35901;48.694;9.476;2022-11-21T03:04:30;1.90;;;1.20;;
50012;SDS011;35901;48.694;9.476;2022-11-21T03:06:56;4.63;;;1.40;;
50012;SDS011;35901;48.694;9.476;2022-11-21T03:09:21;2.27;;;1.10;;
50012;SDS011;35901;48.694;9.476;2022-11-21T03:11:47;4.27;;;1.47;;
50012;SDS011;35901;48.694;9.476;2022-11-21T03:14:13;4.10;;;1.57;;
50012;SDS011;35901;48.694;9.476;2022-11-21T03:16:38;4.10;;;1.53;;
50012;SDS011;35901;48.694;9.476;2022-11-21T03:19:04;2.33;;;1.20;;
50012;SDS011;35901;48.694;9.476;2022-11-21T03:21:29;2.13;;;1.30;;
50012;SDS011;35901;48.694;9.476;2022-11-21T03:23:55;4.87;;;1.50;;
50012;SDS011;35901;48.694;9.476;2022-11-21T03:26:20;3.47;;;1.27;;
50012;SDS011;35901;48.694;9.476;2022-11-21T03:28:46;4.97;;;1.40;;
50012;SDS011;35901;48.694;9.476;2022-11-21T03:31:12;3.83;;;1.60;;
50012;SDS011;35901;48.694;9.476;2022-11-21T03:33:37;2.63;;;1.20;;
50012;SDS011;35901;48.694;9.476;2022-11-21T03:36:03;4.60;;;1.50;;
50012;SDS011;35901;48.694;9.476;2022-11-21T03:38:29;3.10;;;1.37;;
50012;SDS011;35901;48.694;9.476;2022-11-21T03:40:54;3.10;;;1.40;;
50012;SDS011;35901;48.694;9.476;2022-11-21T03:43:20;3.63;;;1.60;;
50012;SDS011;35901;48.694;9.476;2022-11-21T03:45:45;3.07;;;1.27;;
50012;SDS011;35901;48.694;9.476;2022-11-21T03:48:14;3.90;;;1.40;;
50012;SDS011;35901;48.694;9.476;2022-11-21T03:50:43;6.13;;;1.50;;
50012;SDS011;35901;48.694;9.476;2022-11-21T03:53:09;3.80;;;1.50;;
50012;SDS011;35901;48.694;9.476;2022-11-21T03:55:35;2.07;;;1.50;;
50012;SDS011;35901;48.694;9.476;2022-11-21T03:58:00;1.73;;;1.10;;
50012;SDS011;35901;48.694;9.476;2022-11-21T04:00:26;2.63;;;1.20;;
50012;SDS011;35901;48.694;9.476;2022-11-21T04:02:52;3.50;;;1.83;;
50012;SDS011;35901;48.694;9.476;2022-11-21T04:05:17;4.17;;;1.43;;
50012;SDS011;35901;48.694;9.476;2022-11-21T04:07:44;3.33;;;1.40;;
50012;SDS011;35901;48.694;9.476;2022-11-21T04:10:10;3.40;;;1.37;;
50012;SDS011;35901;48.694;9.476;2022-11-21T04:12:35;2.83;;;1.30;;
50012;SDS011;35901;48.694;9.476;2022-11-21T04:15:01;3.10;;;1.43;;
50012;SDS011;35901;48.694;9.476;2022-11-21T04:17:27;4.33;;;1.40;;
50012;SDS011;35901;48.694;9.476;2022-11-21T04:19:53;4.27;;;1.50;;
50012;SDS011;35901;48.694;9.476;2022-11-21T04:22:18;2.10;;;1.23;;
50012;SDS011;35901;48.694;9.476;2022-11-21T04:24:44;5.90;;;1.30;;
50012;SDS011;35901;48.694;9.476;2022-11-21T04:27:09;3.00;;;1.50;;
50012;SDS011;35901;48.694;9.476;2022-11-21T04:29:35;3.03;;;1.50;;
50012;SDS011;35901;48.694;9.476;2022-11-21T04:32:01;2.60;;;1.10;;
50012;SDS011;35901;48.694;9.476;2022-11-21T04:34:27;1.67;;;1.00;;
50012;SDS011;35901;48.694;9.476;2022-11-21T04:36:53;1.53;;;1.03;;
50012;SDS011;35901;48.694;9.476;2022-11-21T04:39:18;1.70;;;1.10;;
50012;SDS011;35901;48.694;9.476;2022-11-21T04:41:44;3.57;;;0.87;;
50012;SDS011;35901;48.694;9.476;2022-11-21T04:44:09;1.90;;;1.00;;
50012;SDS011;35901;48.694;9.476;2022-11-21T04:46:35;1.10;;;0.90;;
50012;SDS011;35901;48.694;9.476;2022-11-21T04:49:00;2.60;;;1.20;;
50012;SDS011;35901;48.694;9.476;2022-11-21T04:51:26;2.10;;;0.87;;
50012;SDS011;35901;48.694;9.476;2022-11-21T04:53:52;1.00;;;0.90;;
50012;SDS011;35901;48.694;9.476;2022-11-21T04:56:17;0.97;;;0.70;;
50012;SDS011;35901;48.694;9.476;2022-11-21T04:58:43;1.03;;;0.83;;
50012;SDS011;35901;48.694;9.476;2022-11-21T05:01:09;1.57;;;0.80;;
50012;SDS011;35901;48.694;9.476;2022-11-21T05:03:35;0.60;;;0.60;;
50012;SDS011;35901;48.694;9.476;2022-11-21T05:06:00;0.77;;;0.77;;
50012;SDS011;35901;48.694;9.476;2022-11-21T05:08:26;1.10;;;0.83;;
50012;SDS011;35901;48.694;9.476;2022-11-21T05:10:52;0.80;;;0.80;;
50012;SDS011;35901;48.694;9.476;2022-11-21T05:13:36;1.07;;;0.80;;
50012;SDS011;35901;48.694;9.476;2022-11-21T05:16:02;1.63;;;0.80;;
50012;SDS011;35901;48.694;9.476;2022-11-21T05:18:28;1.87;;;0.90;;
50012;SDS011;35901;48.694;9.476;2022-11-21T05:20:54;0.93;;;0.70;;
50012;SDS011;35901;48.694;9.476;2022-11-21T05:23:21;0.67;;;0.60;;
50012;SDS011;35901;48.694;9.476;2022-11-21T05:25:47;0.53;;;0.53;;
50012;SDS011;35901;48.694;9.476;2022-11-21T05:28:12;0.70;;;0.70;;
50012;SDS011;35901;48.694;9.476;2022-11-21T05:30:38;0.73;;;0.73;;
50012;SDS011;35901;48.694;9.476;2022-11-21T05:33:04;1.50;;;0.90;;
50012;SDS011;35901;48.694;9.476;2022-11-21T05:35:29;0.93;;;0.77;;
50012;SDS011;35901;48.694;9.476;2022-11-21T05:37:55;0.83;;;0.83;;
50012;SDS011;35901;48.694;9.476;2022-11-21T05:40:22;0.80;;;0.80;;
50012;SDS011;35901;48.694;9.476;2022-11-21T05:42:57;1.13;;;0.70;;
50012;SDS011;35901;48.694;9.476;2022-11-21T05:45:41;1.00;;;0.70;;
50012;SDS011;35901;48.694;9.476;2022-11-21T05:48:07;1.77;;;1.20;;
50012;SDS011;35901;48.694;9.476;2022-11-21T05:50:35;1.33;;;1.23;;
50012;SDS011;35901;48.694;9.476;2022-11-21T05:53:04;1.30;;;1.20;;
50012;SDS011;35901;48.694;9.476;2022-11-21T05:55:33;1.20;;;1.10;;
50012;SDS011;35901;48.694;9.476;2022-11-21T05:57:59;1.30;;;1.20;;
50012;SDS011;35901;48.694;9.476;2022-11-21T06:00:25;0.97;;;0.97;;
50012;SDS011;35901;48.694;9.476;2022-11-21T06:02:52;0.93;;;0.93;;
50012;SDS011;35901;48.694;9.476;2022-11-21T06:05:36;0.80;;;0.80;;
50012;SDS011;35901;48.694;9.476;2022-11-21T06:08:01;1.60;;;1.20;;
50012;SDS011;35901;48.694;9.476;2022-11-21T06:10:27;1.57;;;1.10;;
50012;SDS011;35901;48.694;9.476;2022-11-21T06:12:52;1.20;;;0.87;;
50012;SDS011;35901;48.694;9.476;2022-11-21T06:15:18;0.67;;;0.67;;
50012;SDS011;35901;48.694;9.476;2022-11-21T06:17:44;1.13;;;0.80;;
50012;SDS011;35901;48.694;9.476;2022-11-21T06:20:09;1.10;;;0.93;;
50012;SDS011;35901;48.694;9.476;2022-11-21T06:22:35;0.80;;;0.80;;
50012;SDS011;35901;48.694;9.476;2022-11-21T06:25:01;1.07;;;0.80;;
50012;SDS011;35901;48.694;9.476;2022-11-21T06:27:27;1.80;;;0.77;;
50012;SDS011;35901;48.694;9.476;2022-11-21T06:29:53;1.00;;;1.00;;
50012;SDS011;35901;48.694;9.476;2022-11-21T06:32:19;1.20;;;1.07;;
50012;SDS011;35901;48.694;9.476;2022-11-21T06:34:44;2.93;;;1.30;;
50012;SDS011;35901;48.694;9.476;2022-11-21T06:37:10;1.33;;;0.90;;
50012;SDS011;35901;48.694;9.476;2022-11-21T06:39:35;0.70;;;0.70;;
50012;SDS011;35901;48.694;9.476;2022-11-21T06:42:01;1.50;;;0.90;;
50012;SDS011;35901;48.694;9.476;2022-11-21T06:44:27;1.03;;;0.80;;
50012;SDS011;35901;48.694;9.476;2022-11-21T06:46:52;0.93;;;0.80;;
50012;SDS011;35901;48.694;9.476;2022-11-21T06:49:18;1.00;;;0.70;;
50012;SDS011;35901;48.694;9.476;2022-11-21T06:51:46;1.07;;;1.00;;
50012;SDS011;35901;48.694;9.476;2022-11-21T06:54:11;1.03;;;1.00;;
50012;SDS011;35901;48.694;9.476;2022-11-21T06:56:37;1.10;;;1.00;;
50012;SDS011;35901;48.694;9.476;2022-11-21T06:59:03;1.27;;;0.90;;
50012;SDS011;35901;48.694;9.476;2022-11-21T07:01:29;3.53;;;1.80;;
50012;SDS011;35901;48.694;9.476;2022-11-21T07:03:54;1.43;;;1.33;;
50012;SDS011;35901;48.694;9.476;2022-11-21T07:06:20;1.00;;;1.00;;
50012;SDS011;35901;48.694;9.476;2022-11-21T07:08:46;1.20;;;1.10;;
50012;SDS011;35901;48.694;9.476;2022-11-21T07:11:15;0.90;;;0.90;;
50012;SDS011;35901;48.694;9.476;2022-11-21T07:13:41;1.07;;;0.97;;
50012;SDS011;35901;48.694;9.476;2022-11-21T07:16:08;2.13;;;1.00;;
50012;SDS011;35901;48.694;9.476;2022-11-21T07:18:38;1.23;;;1.13;;
50012;SDS011;35901;48.694;9.476;2022-11-21T07:21:04;2.23;;;0.97;;
50012;SDS011;35901;48.694;9.476;2022-11-21T07:23:30;1.50;;;1.10;;
50012;SDS011;35901;48.694;9.476;2022-11-21T07:26:01;1.20;;;1.10;;
50012;SDS011;35901;48.694;9.476;2022-11-21T07:28:28;1.30;;;1.20;;
50012;SDS011;35901;48.694;9.476;2022-11-21T07:30:55;0.97;;;0.90;;
50012;SDS011;35901;48.694;9.476;2022-11-21T07:33:21;1.30;;;1.10;;
50012;SDS011;35901;48.694;9.476;2022-11-21T07:35:47;1.10;;;1.10;;
50012;SDS011;35901;48.694;9.476;2022-11-21T07:38:13;1.30;;;1.20;;
50012;SDS011;35901;48.694;9.476;2022-11-21T07:40:38;1.63;;;1.33;;
50012;SDS011;35901;48.694;9.476;2022-11-21T07:43:04;2.57;;;1.10;;
50012;SDS011;35901;48.694;9.476;2022-11-21T07:45:31;1.30;;;1.20;;
50012;SDS011;35901;48.694;9.476;2022-11-21T07:47:57;1.43;;;1.00;;
50012;SDS011;35901;48.694;9.476;2022-11-21T07:50:23;1.37;;;0.87;;
50012;SDS011;35901;48.694;9.476;2022-11-21T07:52:49;1.30;;;1.20;;
50012;SDS011;35901;48.694;9.476;2022-11-21T07:55:14;1.03;;;1.03;;
50012;SDS011;35901;48.694;9.476;2022-11-21T07:57:40;1.00;;;0.90;;
50012;SDS011;35901;48.694;9.476;2022-11-21T08:00:05;2.40;;;1.00;;
50012;SDS011;35901;48.694;9.476;2022-11-21T08:02:32;1.40;;;1.10;;
50012;SDS011;35901;48.694;9.476;2022-11-21T08:04:57;2.00;;;1.20;;
50012;SDS011;35901;48.694;9.476;2022-11-21T08:07:23;2.70;;;1.10;;
50012;SDS011;35901;48.694;9.476;2022-11-21T08:09:49;1.57;;;1.47;;
50012;SDS011;35901;48.694;9.476;2022-11-21T08:12:14;2.37;;;1.30;;
50012;SDS011;35901;48.694;9.476;2022-11-21T08:14:40;2.03;;;1.10;;
50012;SDS011;35901;48.694;9.476;2022-11-21T08:17:06;1.27;;;1.10;;
50012;SDS011;35901;48.694;9.476;2022-11-21T08:19:32;2.40;;;1.23;;
50012;SDS011;35901;48.694;9.476;2022-11-21T08:21:58;2.40;;;1.33;;
50012;SDS011;35901;48.694;9.476;2022-11-21T08:24:24;2.50;;;1.40;;
50012;SDS011;35901;48.694;9.476;2022-11-21T08:26:50;1.40;;;1.10;;
50012;SDS011;35901;48.694;9.476;2022-11-21T08:29:16;2.80;;;1.37;;
50012;SDS011;35901;48.694;9.476;2022-11-21T08:31:42;2.10;;;1.43;;
50012;SDS011;35901;48.694;9.476;2022-11-21T08:34:08;3.77;;;1.40;;
50012;SDS011;35901;48.694;9.476;2022-11-21T08:36:35;1.83;;;1.33;;
50012;SDS011;35901;48.694;9.476;2022-11-21T08:39:00;2.57;;;1.20;;
50012;SDS011;35901;48.694;9.476;2022-11-21T08:41:26;2.07;;;1.33;;
50012;SDS011;35901;48.694;9.476;2022-11-21T08:44:11;1.90;;;1.30;;
50012;SDS011;35901;48.694;9.476;2022-11-21T08:46:36;2.33;;;1.50;;
50012;SDS011;35901;48.694;9.476;2022-11-21T08:49:02;4.43;;;1.73;;
50012;SDS011;35901;48.694;9.476;2022-11-21T08:51:28;2.23;;;1.60;;
50012;SDS011;35901;48.694;9.476;2022-11-21T08:53:54;3.93;;;1.53;;
50012;SDS011;35901;48.694;9.476;2022-11-21T08:56:20;3.17;;;1.40;;
50012;SDS011;35901;48.694;9.476;2022-11-21T08:58:45;2.47;;;1.60;;
50012;SDS011;35901;48.694;9.476;2022-11-21T09:01:11;4.80;;;1.43;;
50012;SDS011;35901;48.694;9.476;2022-11-21T09:03:36;2.70;;;1.63;;
50012;SDS011;35901;48.694;9.476;2022-11-21T09:06:02;3.00;;;1.93;;
50012;SDS011;35901;48.694;9.476;2022-11-21T09:08:28;1.97;;;1.60;;
50012;SDS011;35901;48.694;9.476;2022-11-21T09:10:54;4.17;;;1.90;;
50012;SDS011;35901;48.694;9.476;2022-11-21T09:13:20;2.90;;;1.60;;
50012;SDS011;35901;48.694;9.476;2022-11-21T09:15:46;3.80;;;2.30;;
50012;SDS011;35901;48.694;9.476;2022-11-21T09:18:41;3.93;;;1.80;;
50012;SDS011;35901;48.694;9.476;2022-11-21T09:21:07;3.80;;;1.70;;
50012;SDS011;35901;48.694;9.476;2022-11-21T09:23:32;2.63;;;1.57;;
50012;SDS011;35901;48.694;9.476;2022-11-21T09:25:59;2.40;;;1.80;;
50012;SDS011;35901;48.694;9.476;2022-11-21T09:28:25;2.97;;;1.40;;
50012;SDS011;35901;48.694;9.476;2022-11-21T09:30:53;3.50;;;1.63;;
50012;SDS011;35901;48.694;9.476;2022-11-21T09:33:19;2.60;;;1.60;;
50012;SDS011;35901;48.694;9.476;2022-11-21T09:35:44;2.93;;;1.50;;
50012;SDS011;35901;48.694;9.476;2022-11-21T09:38:10;2.63;;;1.47;;
50012;SDS011;35901;48.694;9.476;2022-11-21T09:40:35;4.33;;;1.73;;
50012;SDS011;35901;48.694;9.476;2022-11-21T09:45:43;3.63;;;1.47;;
50012;SDS011;35901;48.694;9.476;2022-11-21T09:51:29;3.07;;;1.50;;
50012;SDS011;35901;48.694;9.476;2022-11-21T09:54:00;4.97;;;1.97;;
50012;SDS011;35901;48.694;9.476;2022-11-21T09:56:37;5.33;;;1.70;;
50012;SDS011;35901;48.694;9.476;2022-11-21T10:01:46;3.63;;;1.57;;
50012;SDS011;35901;48.694;9.476;2022-11-21T10:04:11;1.97;;;1.43;;
50012;SDS011;35901;48.694;9.476;2022-11-21T10:09:33;1.90;;;1.40;;
50012;SDS011;35901;48.694;9.476;2022-11-21T10:17:49;3.13;;;2.03;;
50012;SDS011;35901;48.694;9.476;2022-11-21T10:24:07;2.70;;;1.30;;
50012;SDS011;35901;48.694;9.476;2022-11-21T10:32:12;3.50;;;1.33;;
50012;SDS011;35901;48.694;9.476;2022-11-21T10:35:00;2.60;;;1.30;;
50012;SDS011;35901;48.694;9.476;2022-11-21T10:37:37;4.33;;;1.53;;
50012;SDS011;35901;48.694;9.476;2022-11-21T10:40:15;3.17;;;1.10;;
50012;SDS011;35901;48.694;9.476;2022-11-21T10:45:57;1.67;;;1.20;;
50012;SDS011;35901;48.694;9.476;2022-11-21T10:48:23;3.93;;;1.60;;
50012;SDS011;35901;48.694;9.476;2022-11-21T10:53:49;3.37;;;1.50;;
50012;SDS011;35901;48.694;9.476;2022-11-21T10:56:51;2.70;;;1.27;;
50012;SDS011;35901;48.694;9.476;2022-11-21T10:59:23;4.33;;;1.60;;
50012;SDS011;35901;48.694;9.476;2022-11-21T11:01:55;4.17;;;1.43;;
50012;SDS011;35901;48.694;9.476;2022-11-21T11:04:23;2.87;;;1.40;;
50012;SDS011;35901;48.694;9.476;2022-11-21T11:06:50;2.27;;;1.40;;
50012;SDS011;35901;48.694;9.476;2022-11-21T11:09:22;4.23;;;1.67;;
50012;SDS011;35901;48.694;9.476;2022-11-21T11:11:52;3.70;;;1.60;;
50012;SDS011;35901;48.694;9.476;2022-11-21T11:14:38;4.37;;;1.67;;
50012;SDS011;35901;48.694;9.476;2022-11-21T11:17:03;2.70;;;1.30;;
50012;SDS011;35901;48.694;9.476;2022-11-21T11:19:29;3.73;;;1.40;;
50012;SDS011;35901;48.694;9.476;2022-11-21T11:21:55;2.80;;;1.30;;
50012;SDS011;35901;48.694;9.476;2022-11-21T11:24:24;3.07;;;1.23;;
50012;SDS011;35901;48.694;9.476;2022-11-21T11:26:58;2.97;;;1.33;;
50012;SDS011;35901;48.694;9.476;2022-11-21T11:29:26;3.03;;;1.57;;
50012;SDS011;35901;48.694;9.476;2022-11-21T11:34:24;3.90;;;1.40;;
50012;SDS011;35901;48.694;9.476;2022-11-21T11:39:48;4.13;;;1.50;;
50012;SDS011;35901;48.694;9.476;2022-11-21T11:49:08;3.40;;;1.30;;
50012;SDS011;35901;48.694;9.476;2022-11-21T11:51:47;2.33;;;1.63;;
50012;SDS011;35901;48.694;9.476;2022-11-21T11:54:19;3.07;;;1.50;;
50012;SDS011;35901;48.694;9.476;2022-11-21T11:56:49;2.70;;;1.20;;
50012;SDS011;35901;48.694;9.476;2022-11-21T11:59:32;2.37;;;1.23;;
50012;SDS011;35901;48.694;9.476;2022-11-21T12:04:27;2.57;;;1.20;;
50012;SDS011;35901;48.694;9.476;2022-11-21T12:07:00;2.50;;;1.43;;
50012;SDS011;35901;48.694;9.476;2022-11-21T12:09:29;2.87;;;1.30;;
50012;SDS011;35901;48.694;9.476;2022-11-21T12:12:04;2.93;;;1.30;;
50012;SDS011;35901;48.694;9.476;2022-11-21T12:17:41;2.40;;;1.43;;
50012;SDS011;35901;48.694;9.476;2022-11-21T12:20:12;4.13;;;1.43;;
50012;SDS011;35901;48.694;9.476;2022-11-21T12:22:40;2.40;;;1.43;;
50012;SDS011;35901;48.694;9.476;2022-11-21T12:25:09;4.17;;;1.50;;
50012;SDS011;35901;48.694;9.476;2022-11-21T12:27:41;2.03;;;1.40;;
50012;SDS011;35901;48.694;9.476;2022-11-21T12:30:10;3.57;;;1.70;;
50012;SDS011;35901;48.694;9.476;2022-11-21T12:32:44;3.43;;;1.60;;
50012;SDS011;35901;48.694;9.476;2022-11-21T12:35:56;3.93;;;1.40;;
50012;SDS011;35901;48.694;9.476;2022-11-21T12:38:29;2.80;;;1.20;;
50012;SDS011;35901;48.694;9.476;2022-11-21T12:41:13;3.53;;;1.37;;
50012;SDS011;35901;48.694;9.476;2022-11-21T12:44:09;3.93;;;1.30;;
50012;SDS011;35901;48.694;9.476;2022-11-21T12:46:53;1.70;;;1.03;;
50012;SDS011;35901;48.694;9.476;2022-11-21T12:52:57;3.37;;;1.30;;
50012;SDS011;35901;48.694;9.476;2022-11-21T12:55:52;2.67;;;1.20;;
50012;SDS011;35901;48.694;9.476;2022-11-21T12:58:25;2.73;;;1.30;;
50012;SDS011;35901;48.694;9.476;2022-11-21T13:01:05;1.63;;;1.00;;
50012;SDS011;35901;48.694;9.476;2022-11-21T13:06:52;2.07;;;1.17;;
50012;SDS011;35901;48.694;9.476;2022-11-21T13:09:21;3.30;;;1.40;;
50012;SDS011;35901;48.694;9.476;2022-11-21T13:11:58;3.10;;;1.30;;
50012;SDS011;35901;48.694;9.476;2022-11-21T13:19:53;1.70;;;1.20;;
50012;SDS011;35901;48.694;9.476;2022-11-21T13:25:02;2.43;;;1.40;;
50012;SDS011;35901;48.694;9.476;2022-11-21T13:30:19;1.17;;;0.97;;
50012;SDS011;35901;48.694;9.476;2022-11-21T13:32:48;3.27;;;1.40;;
50012;SDS011;35901;48.694;9.476;2022-11-21T13:45:49;3.57;;;1.70;;
50012;SDS011;35901;48.694;9.476;2022-11-21T13:54:16;4.47;;;1.60;;
50012;SDS011;35901;48.694;9.476;2022-11-21T14:00:02;3.37;;;1.87;;
50012;SDS011;35901;48.694;9.476;2022-11-21T14:06:04;3.90;;;1.27;;
50012;SDS011;35901;48.694;9.476;2022-11-21T14:08:34;2.87;;;1.30;;
50012;SDS011;35901;48.694;9.476;2022-11-21T14:11:01;4.30;;;1.67;;
50012;SDS011;35901;48.694;9.476;2022-11-21T14:13:54;2.37;;;1.30;;
50012;SDS011;35901;48.694;9.476;2022-11-21T14:16:26;6.97;;;4.33;;
50012;SDS011;35901;48.694;9.476;2022-11-21T14:19:10;3.27;;;2.33;;
50012;SDS011;35901;48.694;9.476;2022-11-21T14:21:44;4.80;;;2.70;;
50012;SDS011;35901;48.694;9.476;2022-11-21T14:24:17;4.17;;;2.30;;
50012;SDS011;35901;48.694;9.476;2022-11-21T14:26:48;3.03;;;2.27;;
50012;SDS011;35901;48.694;9.476;2022-11-21T14:29:24;5.00;;;2.10;;
50012;SDS011;35901;48.694;9.476;2022-11-21T14:31:53;3.20;;;1.77;;
50012;SDS011;35901;48.694;9.476;2022-11-21T14:34:26;3.63;;;2.10;;
50012;SDS011;35901;48.694;9.476;2022-11-21T14:36:57;3.03;;;1.90;;
50012;SDS011;35901;48.694;9.476;2022-11-21T14:39:25;6.03;;;2.83;;
50012;SDS011;35901;48.694;9.476;2022-11-21T14:41:56;3.07;;;2.07;;
50012;SDS011;35901;48.694;9.476;2022-11-21T14:44:28;4.20;;;2.20;;
50012;SDS011;35901;48.694;9.476;2022-11-21T14:49:37;3.37;;;1.87;;
50012;SDS011;35901;48.694;9.476;2022-11-21T14:54:51;4.17;;;1.80;;
50012;SDS011;35901;48.694;9.476;2022-11-21T14:57:23;3.33;;;1.83;;
50012;SDS011;35901;48.694;9.476;2022-11-21T14:59:52;3.00;;;1.80;;
50012;SDS011;35901;48.694;9.476;2022-11-21T15:02:22;4.33;;;2.10;;
50012;SDS011;35901;48.694;9.476;2022-11-21T15:04:50;4.40;;;1.80;;
50012;SDS011;35901;48.694;9.476;2022-11-21T15:07:18;6.57;;;2.27;;
50012;SDS011;35901;48.694;9.476;2022-11-21T15:09:48;4.00;;;1.93;;
50012;SDS011;35901;48.694;9.476;2022-11-21T15:12:20;5.87;;;2.23;;
50012;SDS011;35901;48.694;9.476;2022-11-21T15:14:55;5.10;;;2.23;;
50012;SDS011;35901;48.694;9.476;2022-11-21T15:18:02;5.60;;;2.50;;
50012;SDS011;35901;48.694;9.476;2022-11-21T15:20:30;4.23;;;2.30;;
50012;SDS011;35901;48.694;9.476;2022-11-21T15:22:58;4.53;;;1.97;;
50012;SDS011;35901;48.694;9.476;2022-11-21T15:25:26;3.23;;;1.90;;
50012;SDS011;35901;48.694;9.476;2022-11-21T15:30:30;3.47;;;1.63;;
50012;SDS011;35901;48.694;9.476;2022-11-21T15:32:57;5.50;;;1.57;;
50012;SDS011;35901;48.694;9.476;2022-11-21T15:36:10;2.57;;;1.50;;
50012;SDS011;35901;48.694;9.476;2022-11-21T15:38:25;4.20;;;1.40;;
50012;SDS011;35901;48.694;9.476;2022-11-21T15:48:47;5.23;;;2.30;;
50012;SDS011;35901;48.694;9.476;2022-11-21T15:51:34;3.07;;;2.00;;
50012;SDS011;35901;48.694;9.476;2022-11-21T15:54:05;7.53;;;2.83;;
50012;SDS011;35901;48.694;9.476;2022-11-21T15:56:34;5.50;;;2.00;;
50012;SDS011;35901;48.694;9.476;2022-11-21T15:59:00;3.90;;;1.83;;
50012;SDS011;35901;48.694;9.476;2022-11-21T16:01:26;4.97;;;2.10;;
50012;SDS011;35901;48.694;9.476;2022-11-21T16:03:57;4.43;;;2.50;;
50012;SDS011;35901;48.694;9.476;2022-11-21T16:06:25;6.47;;;2.97;;
50012;SDS011;35901;48.694;9.476;2022-11-21T16:08:51;5.83;;;2.40;;
50012;SDS011;35901;48.694;9.476;2022-11-21T16:11:23;4.60;;;2.40;;
50012;SDS011;35901;48.694;9.476;2022-11-21T16:13:57;5.37;;;2.43;;
50012;SDS011;35901;48.694;9.476;2022-11-21T16:16:26;7.50;;;2.80;;
50012;SDS011;35901;48.694;9.476;2022-11-21T16:18:54;5.30;;;2.10;;
50012;SDS011;35901;48.694;9.476;2022-11-21T16:21:20;3.40;;;2.23;;
50012;SDS011;35901;48.694;9.476;2022-11-21T16:23:46;6.37;;;2.13;;
50012;SDS011;35901;48.694;9.476;2022-11-21T16:26:11;3.93;;;2.07;;
50012;SDS011;35901;48.694;9.476;2022-11-21T16:28:37;4.10;;;2.30;;
50012;SDS011;35901;48.694;9.476;2022-11-21T16:31:03;4.63;;;2.20;;
50012;SDS011;35901;48.694;9.476;2022-11-21T16:33:30;5.67;;;2.53;;
50012;SDS011;35901;48.694;9.476;2022-11-21T16:35:56;4.10;;;2.20;;
50012;SDS011;35901;48.694;9.476;2022-11-21T16:38:22;5.07;;;2.20;;
50012;SDS011;35901;48.694;9.476;2022-11-21T16:40:56;7.70;;;2.87;;
50012;SDS011;35901;48.694;9.476;2022-11-21T16:43:23;4.63;;;2.80;;
50012;SDS011;35901;48.694;9.476;2022-11-21T16:45:49;4.77;;;2.93;;
50012;SDS011;35901;48.694;9.476;2022-11-21T16:48:15;4.40;;;3.10;;
50012;SDS011;35901;48.694;9.476;2022-11-21T16:50:41;5.83;;;2.70;;
50012;SDS011;35901;48.694;9.476;2022-11-21T16:53:06;4.13;;;2.27;;
50012;SDS011;35901;48.694;9.476;2022-11-21T16:55:32;4.53;;;2.80;;